Архив погоды в Анабаре

Метеограмма Анабар
Среда, 15 Августа
Время местн. Темп Ветер Видим Явления Облачность нижн/средн/верх Атм. давл. Влжн Точка росы ВНГО R Сост. почвы Tg s
Напр Скр Прв ур.ст ур.м изм
03:00 +9.5° Ю-З 6 - 20 км - переменная облачность 754 755 -0.5 89% +7.8° более 2.5 км - - - -
00:00 +11.7° З,Ю-З 6 - 20 км - переменная облачность 754 756 +0.5 84% +9.1° 600 м - - - -
Вторник, 14 Августа
Время местн. Темп Ветер Видим Явления Облачность нижн/средн/верх Атм. давл. Влжн Точка росы ВНГО R Сост. почвы Tg s
Напр Скр Прв ур.ст ур.м изм
21:00 +16.5° Ю 4 - 20 км - облачно с прояснениями 754 755 -0.2 75% +12.1° 1 км 0 - - -
18:00 +16.9° Ю 6 - 20 км - переменная облачность 754 755 -0.8 72% +11.8° 1 км - - - -
15:00 +15° Ю 7 - 20 км - облачно 755 756 -0.7 76% +10.9° более 2.5 км - - - -
12:00 +14.3° Ю 3 - 20 км - облачно 756 757 +0.4 81% +11.1° более 2.5 км - - - -
09:00 +11.9° З 4 - 20 км - облачно 755 756 +0.8 92% +10.7° более 2.5 км 0 Влажная (без луж) +8° -
06:00 +8.7° З 3 - 20 км - облачно с прояснениями 754 756 +1.7 99% +8.5° более 2.5 км - - - -
03:00 +10.7° З 8 - 20 км - облачно 753 754 +3 94% +9.7° более 2.5 км - - - -
00:00 +16.8° Ю,Ю-З 6 - 20 км - облачно 750 751 +1.3 94% +15.8° более 2.5 км - - - -
Понедельник, 13 Августа
Время местн. Темп Ветер Видим Явления Облачность нижн/средн/верх Атм. давл. Влжн Точка росы ВНГО R Сост. почвы Tg s
Напр Скр Прв ур.ст ур.м изм
21:00 +17.4° Ю 4 - 20 км - облачно 748 749 +0.5 86% +15° более 2.5 км 0 - - -
15:00 +17.5° Ю 5 - 20 км - облачно 748 749 -0.1 85% +14.9° более 2.5 км - - - -
12:00 +16.8° Ю 4 - 20 км - облачно 748 749 +0.2 89% +14.9° более 2.5 км - - - -
06:00 +13.8° Ю 6 12 10 км слабый дождь с перерывами {ливневые осадки} облачно 747 749 -0.5 94% +12.9° 600 м - - - -
03:00 +15.4° Ю 8 12 20 км - облачно 748 749 -0.6 86% +13.1° 600 м - - - -
00:00 +16.5° Ю 9 11 20 км - облачно 748 750 -0.9 80% +13.1° более 2.5 км - - - -
Воскресенье, 12 Августа
Время местн. Темп Ветер Видим Явления Облачность нижн/средн/верх Атм. давл. Влжн Точка росы ВНГО R Сост. почвы Tg s
Напр Скр Прв ур.ст ур.м изм
21:00 +16.8° Ю 7 10 20 км - облачно 749 750 -0.8 81% +13.6° более 2.5 км 0 - - -
18:00 +20.5° Ю 6 12 20 км - облачно 750 751 -0.7 65% +13.8° более 2.5 км - - - -
15:00 +20.9° Ю 5 10 20 км - облачно с прояснениями 751 752 -0.6 66% +14.4° 1.5 км - - - -
12:00 +18.8° Ю 5 - 20 км - переменная облачность 751 752 -1.1 72% +13.6° более 2.5 км - - - -
09:00 +12.5° Ю 3 - 20 км - ясно 752 754 0 85% +10° более 2.5 км 0 Влажная (без луж) +7° -
06:00 +10° В 2 - 20 км - ясно 752 754 +0.2 96% +9.4° более 2.5 км - - - -
03:00 +10.4° Ю 1 - 20 км - ясно 752 753 +0.5 97% +10° более 2.5 км - - - -
Суббота, 11 Августа
Время местн. Темп Ветер Видим Явления Облачность нижн/средн/верх Атм. давл. Влжн Точка росы ВНГО R Сост. почвы Tg s
Напр Скр Прв ур.ст ур.м изм
21:00 +15.3° В 2 - 20 км - облачно 751 752 +0.1 87% +13.1° 600 м 0 - - -
18:00 +17.4° В 1 - 20 км - облачно 751 752 +0.5 74% +12.8° 600 м - - - -
15:00 +15.5° З 6 - 20 км небо без изменений {ливневые осадки} облачно 750 751 +0.5 83% +12.6° более 2.5 км - - - -